createdAt,value
2018-03-20T00:01:00.857Z,-1.55
2018-03-20T00:03:27.100Z,-1.55
2018-03-20T00:05:53.595Z,-1.58
2018-03-20T00:08:19.842Z,-1.59
2018-03-20T00:10:46.086Z,-1.69
2018-03-20T00:13:12.491Z,-1.66
2018-03-20T00:15:38.750Z,-1.68
2018-03-20T00:18:05.031Z,-1.65
2018-03-20T00:20:31.260Z,-1.66
2018-03-20T00:22:57.515Z,-1.69
2018-03-20T00:25:23.901Z,-1.77
2018-03-20T00:27:50.165Z,-1.78
2018-03-20T00:30:16.396Z,-1.84
2018-03-20T00:32:42.765Z,-1.88
2018-03-20T00:35:09.016Z,-1.90
2018-03-20T00:37:35.395Z,-1.88
2018-03-20T00:40:01.676Z,-1.89
2018-03-20T00:42:27.984Z,-1.92
2018-03-20T00:44:54.438Z,-1.96
2018-03-20T00:47:20.673Z,-1.93
2018-03-20T00:49:46.932Z,-2.00
2018-03-20T00:52:13.208Z,-2.01
2018-03-20T00:54:39.469Z,-2.00
2018-03-20T00:57:05.947Z,-2.01
2018-03-20T00:59:32.172Z,-2.08
2018-03-20T01:01:58.433Z,-2.08
2018-03-20T01:04:24.757Z,-2.22
2018-03-20T01:06:51.020Z,-2.31
2018-03-20T01:09:17.294Z,-2.31
2018-03-20T01:11:43.568Z,-2.31
2018-03-20T01:14:09.832Z,-2.22
2018-03-20T01:16:36.328Z,-2.15
2018-03-20T01:19:02.563Z,-2.14
2018-03-20T01:21:28.800Z,-2.12
2018-03-20T01:23:55.108Z,-2.12
2018-03-20T01:26:21.363Z,-2.09
2018-03-20T01:28:47.815Z,-2.09
2018-03-20T01:31:14.053Z,-2.11
2018-03-20T01:33:40.314Z,-2.17
2018-03-20T01:36:06.654Z,-2.23
2018-03-20T01:38:32.924Z,-2.28
2018-03-20T01:40:59.196Z,-2.24
2018-03-20T01:43:25.476Z,-2.29
2018-03-20T01:45:51.720Z,-2.37
2018-03-20T01:48:18.137Z,-2.40
2018-03-20T01:50:44.392Z,-2.38
2018-03-20T01:53:17.861Z,-2.38
2018-03-20T01:55:44.112Z,-2.41
2018-03-20T01:58:10.340Z,-2.39
2018-03-20T02:00:36.735Z,-2.41
2018-03-20T02:03:02.985Z,-2.38
2018-03-20T02:05:29.390Z,-2.30
2018-03-20T02:07:55.652Z,-2.34
2018-03-20T02:10:21.896Z,-2.30
2018-03-20T02:12:48.400Z,-2.28
2018-03-20T02:15:14.643Z,-2.32
2018-03-20T02:17:40.896Z,-2.35
2018-03-20T02:20:07.140Z,-2.42
2018-03-20T02:22:33.391Z,-2.36
2018-03-20T02:24:59.792Z,-2.44
2018-03-20T02:27:26.062Z,-2.47
2018-03-20T02:29:52.284Z,-2.51
2018-03-20T02:32:18.705Z,-2.49
2018-03-20T02:34:44.937Z,-2.54
2018-03-20T02:37:11.320Z,-2.57
2018-03-20T02:39:37.588Z,-2.58
2018-03-20T02:42:03.840Z,-2.77
2018-03-20T02:44:30.390Z,-2.88
2018-03-20T02:46:56.620Z,-2.94
2018-03-20T02:49:22.880Z,-2.90
2018-03-20T02:51:49.141Z,-2.94
2018-03-20T02:54:15.397Z,-3.10
2018-03-20T02:56:41.847Z,-3.09
2018-03-20T02:59:08.108Z,-3.07
2018-03-20T03:01:34.369Z,-3.09
2018-03-20T03:04:00.745Z,-3.06
2018-03-20T03:06:27.018Z,-3.04
2018-03-20T03:08:53.465Z,-3.13
2018-03-20T03:11:19.713Z,-3.18
2018-03-20T03:13:45.935Z,-3.12
2018-03-20T03:16:12.386Z,-2.99
2018-03-20T03:18:38.616Z,-2.98
2018-03-20T03:21:04.904Z,-2.92
2018-03-20T03:23:31.144Z,-2.85
2018-03-20T03:25:57.372Z,-2.82
2018-03-20T03:28:23.807Z,-2.76
2018-03-20T03:30:50.084Z,-2.72
2018-03-20T03:33:16.348Z,-2.69
2018-03-20T03:35:42.739Z,-2.71
2018-03-20T03:38:08.989Z,-2.67
2018-03-20T03:40:35.288Z,-2.69
2018-03-20T03:43:01.575Z,-2.76
2018-03-20T03:45:27.832Z,-2.86
2018-03-20T03:47:54.182Z,-2.79
2018-03-20T03:50:20.457Z,-2.85
2018-03-20T03:52:46.683Z,-2.97
2018-03-20T03:55:12.997Z,-3.02
2018-03-20T03:57:39.215Z,-3.15
2018-03-20T04:00:05.536Z,-3.12
2018-03-20T04:02:31.767Z,-3.06
2018-03-20T04:04:58.035Z,-3.03
2018-03-20T04:07:24.487Z,-2.99
2018-03-20T04:09:50.732Z,-3.11
2018-03-20T04:12:16.989Z,-3.11
2018-03-20T04:14:43.220Z,-3.26
2018-03-20T04:17:09.466Z,-3.33
2018-03-20T04:19:35.988Z,-3.42
2018-03-20T04:22:02.247Z,-3.34
2018-03-20T04:24:28.491Z,-3.34
2018-03-20T04:26:54.775Z,-3.42
2018-03-20T04:29:21.008Z,-3.41
2018-03-20T04:31:47.289Z,-3.43
2018-03-20T04:34:13.588Z,-3.39
2018-03-20T04:36:39.842Z,-3.39
2018-03-20T04:39:06.292Z,-3.40
2018-03-20T04:41:32.547Z,-3.33
2018-03-20T04:43:58.807Z,-3.43
2018-03-20T04:46:25.046Z,-3.54
2018-03-20T04:48:51.307Z,-3.63
2018-03-20T04:51:17.642Z,-3.71
2018-03-20T04:53:43.920Z,-3.78
2018-03-20T04:56:10.168Z,-3.85
2018-03-20T04:58:36.608Z,-3.77
2018-03-20T05:01:02.858Z,-3.83
2018-03-20T05:03:29.085Z,-3.89
2018-03-20T05:05:55.419Z,-3.90
2018-03-20T05:08:21.668Z,-3.85
2018-03-20T05:10:48.089Z,-3.86
2018-03-20T05:13:14.341Z,-3.83
2018-03-20T05:15:40.612Z,-3.96
2018-03-20T05:18:06.924Z,-3.91
2018-03-20T05:23:37.640Z,-4.01
2018-03-20T05:26:03.924Z,-4.04
2018-03-20T05:28:30.402Z,-4.08
2018-03-20T05:30:56.673Z,-4.01
2018-03-20T05:33:23.007Z,-3.97
2018-03-20T05:35:49.288Z,-4.00
2018-03-20T05:38:15.592Z,-3.88
2018-03-20T05:40:42.097Z,-3.80
2018-03-20T05:43:08.373Z,-3.62
2018-03-20T05:45:34.669Z,-3.52
2018-03-20T05:48:06.983Z,-3.38
2018-03-20T05:53:29.771Z,-3.32
2018-03-20T05:55:56.068Z,-3.08
2018-03-20T05:58:22.288Z,-2.94
2018-03-20T06:00:48.679Z,-2.64
2018-03-20T06:03:14.908Z,-2.56
2018-03-20T06:05:41.166Z,-2.40
2018-03-20T06:08:07.440Z,-2.35
2018-03-20T06:10:33.693Z,-2.20
2018-03-20T06:13:00.137Z,-2.14
2018-03-20T06:15:26.461Z,-1.99
2018-03-20T06:17:52.693Z,-1.73
2018-03-20T06:20:18.988Z,-1.57
2018-03-20T06:22:45.245Z,-1.35
2018-03-20T06:25:11.559Z,-1.31
2018-03-20T06:27:37.844Z,-1.32
2018-03-20T06:30:04.129Z,-1.26
2018-03-20T06:32:30.552Z,-1.27
2018-03-20T06:34:56.812Z,-1.16
2018-03-20T06:37:23.043Z,-0.80
2018-03-20T06:39:49.284Z,-0.72
2018-03-20T06:42:15.508Z,-0.65
2018-03-20T06:44:41.988Z,-0.45
2018-03-20T06:47:08.214Z,-0.24
2018-03-20T06:49:34.483Z,-0.03
2018-03-20T06:52:00.797Z,0.18
2018-03-20T06:54:27.023Z,0.16
2018-03-20T06:56:53.427Z,0.46
2018-03-20T06:59:19.677Z,0.37
2018-03-20T07:01:45.981Z,0.64
2018-03-20T07:04:12.461Z,0.97
2018-03-20T07:06:38.736Z,1.09
2018-03-20T07:09:05.016Z,1.35
2018-03-20T07:11:31.286Z,1.58
2018-03-20T07:13:57.532Z,1.86
2018-03-20T07:16:23.981Z,2.28
2018-03-20T07:18:50.243Z,2.51
2018-03-20T07:21:16.495Z,2.74
2018-03-20T07:23:42.861Z,2.96
2018-03-20T07:26:09.088Z,3.08
2018-03-20T07:28:35.466Z,2.71
2018-03-20T07:31:01.720Z,2.81
2018-03-20T07:33:27.972Z,3.00
2018-03-20T07:35:54.469Z,3.53
2018-03-20T07:38:20.683Z,3.95
2018-03-20T07:40:46.931Z,3.99
2018-03-20T07:43:13.160Z,4.21
2018-03-20T07:45:39.399Z,4.70
2018-03-20T07:48:05.718Z,4.64
2018-03-20T07:50:31.976Z,4.74
2018-03-20T07:52:58.201Z,5.24
2018-03-20T07:55:24.616Z,6.14
2018-03-20T07:57:50.836Z,7.02
2018-03-20T08:00:17.073Z,6.83
2018-03-20T08:02:43.312Z,7.99
2018-03-20T08:05:09.531Z,8.07
2018-03-20T08:07:35.994Z,9.51
2018-03-20T08:10:02.227Z,9.88
2018-03-20T08:12:28.471Z,10.52
2018-03-20T08:14:54.916Z,11.16
2018-03-20T08:17:21.179Z,10.17
2018-03-20T08:19:47.491Z,8.71
2018-03-20T08:22:13.736Z,9.18
2018-03-20T08:24:40.001Z,9.61
2018-03-20T08:27:06.237Z,9.89
2018-03-20T08:29:32.483Z,9.42
2018-03-20T08:31:58.704Z,8.46
2018-03-20T08:34:24.958Z,8.09
2018-03-20T08:36:51.179Z,7.54
2018-03-20T08:39:17.433Z,7.55
2018-03-20T08:41:43.660Z,7.16
2018-03-20T08:44:09.879Z,7.08
2018-03-20T08:46:36.120Z,6.94
2018-03-20T08:49:02.377Z,6.62
2018-03-20T08:51:28.672Z,6.64
2018-03-20T08:53:54.896Z,6.83
2018-03-20T08:56:21.136Z,6.40
2018-03-20T08:58:47.345Z,6.09
2018-03-20T09:01:13.632Z,6.48
2018-03-20T09:03:39.889Z,6.73
2018-03-20T09:06:06.145Z,6.65
2018-03-20T09:08:32.388Z,6.28
2018-03-20T09:10:58.603Z,6.93
2018-03-20T09:13:24.839Z,7.18
2018-03-20T09:15:51.057Z,6.72
2018-03-20T09:18:17.308Z,6.43
2018-03-20T09:20:43.541Z,6.30
2018-03-20T09:23:09.777Z,6.19
2018-03-20T09:25:36.020Z,6.34
2018-03-20T09:28:02.244Z,5.99
2018-03-20T09:30:28.488Z,5.39
2018-03-20T09:32:54.722Z,5.10
2018-03-20T09:35:20.956Z,4.68
2018-03-20T09:37:47.208Z,4.38
2018-03-20T09:40:13.501Z,4.44
2018-03-20T09:42:39.721Z,4.54
2018-03-20T09:45:05.969Z,4.41
2018-03-20T09:47:32.232Z,4.24
2018-03-20T09:49:58.452Z,3.85
2018-03-20T09:52:24.696Z,3.88
2018-03-20T09:54:50.915Z,3.83
2018-03-20T09:57:17.177Z,3.66
2018-03-20T09:59:43.409Z,3.52
2018-03-20T10:02:09.664Z,3.47
2018-03-20T10:04:35.912Z,3.32
2018-03-20T10:07:02.188Z,3.18
2018-03-20T10:09:28.424Z,3.05
2018-03-20T10:11:54.658Z,3.04
2018-03-20T10:14:20.909Z,3.14
2018-03-20T10:16:47.165Z,3.37
2018-03-20T10:19:13.427Z,3.28
2018-03-20T10:21:39.684Z,3.11
2018-03-20T10:24:05.944Z,3.34
2018-03-20T10:26:32.183Z,3.38
2018-03-20T10:28:58.434Z,3.64
2018-03-20T10:31:24.682Z,3.51
2018-03-20T10:33:50.916Z,3.60
2018-03-20T10:36:17.136Z,3.63
2018-03-20T10:38:43.389Z,3.11
2018-03-20T10:41:09.644Z,2.95
2018-03-20T10:43:35.890Z,3.01
2018-03-20T10:46:02.172Z,3.06
2018-03-20T10:48:28.440Z,3.28
2018-03-20T10:50:54.769Z,3.23
2018-03-20T10:53:20.987Z,3.29
2018-03-20T10:55:47.260Z,3.47
2018-03-20T10:58:13.472Z,3.75
2018-03-20T11:00:45.817Z,3.79
2018-03-20T11:03:12.076Z,4.05
2018-03-20T11:05:38.334Z,3.88
2018-03-20T11:08:04.612Z,3.93
2018-03-20T11:10:30.896Z,3.99
2018-03-20T11:12:57.108Z,3.65
2018-03-20T11:15:23.328Z,3.54
2018-03-20T11:17:49.620Z,3.35
2018-03-20T11:20:15.842Z,3.37
2018-03-20T11:22:42.101Z,3.63
2018-03-20T11:25:08.324Z,3.92
2018-03-20T11:27:34.620Z,3.94
2018-03-20T11:30:00.862Z,4.01
2018-03-20T11:32:27.127Z,3.73
2018-03-20T11:34:53.397Z,3.58
2018-03-20T11:37:19.633Z,3.78
2018-03-20T11:39:45.896Z,3.91
2018-03-20T11:42:12.148Z,4.21
2018-03-20T11:44:38.437Z,4.18
2018-03-20T11:47:04.685Z,3.99
2018-03-20T11:49:31.077Z,3.50
2018-03-20T11:51:57.277Z,3.34
2018-03-20T11:54:23.592Z,3.22
2018-03-20T11:56:49.876Z,3.14
2018-03-20T11:59:16.115Z,2.91
2018-03-20T12:01:42.409Z,2.94
2018-03-20T12:04:08.664Z,3.13
2018-03-20T12:06:35.016Z,3.15
2018-03-20T12:09:13.584Z,3.04
2018-03-20T12:11:39.841Z,3.10
2018-03-20T12:14:06.072Z,3.28
2018-03-20T12:16:32.328Z,3.13
2018-03-20T12:18:58.575Z,2.71
2018-03-20T12:21:24.812Z,2.79
2018-03-20T12:23:51.063Z,2.71
2018-03-20T12:26:17.289Z,2.60
2018-03-20T12:28:43.544Z,2.62
2018-03-20T12:31:09.773Z,3.01
2018-03-20T12:33:36.064Z,2.98
2018-03-20T12:36:02.324Z,2.93
2018-03-20T12:38:28.567Z,2.99
2018-03-20T12:40:54.828Z,3.10
2018-03-20T12:43:21.047Z,3.16
2018-03-20T12:45:47.287Z,3.30
2018-03-20T12:48:13.515Z,3.60
2018-03-20T12:50:39.765Z,3.43
2018-03-20T12:53:06.036Z,3.52
2018-03-20T12:55:32.296Z,3.60
2018-03-20T12:57:58.602Z,3.59
2018-03-20T13:00:24.855Z,3.65
2018-03-20T13:02:51.112Z,3.50
2018-03-20T13:05:17.349Z,3.25
2018-03-20T13:07:43.601Z,3.05
2018-03-20T13:10:09.834Z,2.85
2018-03-20T13:12:36.106Z,2.82
2018-03-20T13:15:02.365Z,2.93
2018-03-20T13:17:28.603Z,3.14
2018-03-20T13:19:54.851Z,3.16
2018-03-20T13:22:21.100Z,3.28
2018-03-20T13:24:47.347Z,3.39
2018-03-20T13:27:13.581Z,3.40
2018-03-20T13:29:39.833Z,3.43
2018-03-20T13:32:06.068Z,3.34
2018-03-20T13:34:32.308Z,3.31
2018-03-20T13:36:58.558Z,3.47
2018-03-20T13:39:25.006Z,3.59
2018-03-20T13:41:51.420Z,3.59
2018-03-20T13:44:17.652Z,3.41
2018-03-20T13:46:43.901Z,3.17
2018-03-20T13:49:10.190Z,2.91
2018-03-20T13:51:36.424Z,2.88
2018-03-20T13:54:02.700Z,2.74
2018-03-20T13:56:29.005Z,2.69
2018-03-20T13:58:55.500Z,2.65
2018-03-20T14:01:21.764Z,2.64
2018-03-20T14:03:47.988Z,2.62
2018-03-20T14:06:14.933Z,2.66
2018-03-20T14:08:41.260Z,2.67
2018-03-20T14:11:07.492Z,2.65
2018-03-20T14:13:33.764Z,2.64
2018-03-20T14:15:59.985Z,2.66
2018-03-20T14:18:26.263Z,2.62
2018-03-20T14:20:52.480Z,2.63
2018-03-20T14:23:18.769Z,2.58
2018-03-20T14:25:45.000Z,2.50
2018-03-20T14:28:11.247Z,2.41
2018-03-20T14:30:37.480Z,2.40
2018-03-20T14:33:03.728Z,2.36
2018-03-20T14:35:29.996Z,2.45
2018-03-20T14:37:56.229Z,2.43
2018-03-20T14:40:22.516Z,2.42
2018-03-20T14:42:48.739Z,2.37
2018-03-20T14:45:15.035Z,2.27
2018-03-20T14:47:41.265Z,2.30
2018-03-20T14:50:07.492Z,2.29
2018-03-20T14:52:33.748Z,2.27
2018-03-20T14:54:59.979Z,2.35
2018-03-20T14:57:26.232Z,2.32
2018-03-20T14:59:52.481Z,2.20
2018-03-20T15:02:18.741Z,2.24
2018-03-20T15:04:44.984Z,2.17
2018-03-20T15:07:11.240Z,2.22
2018-03-20T15:09:37.476Z,2.23
2018-03-20T15:12:03.721Z,2.26
2018-03-20T15:14:30.032Z,2.30
2018-03-20T15:16:56.268Z,2.24
2018-03-20T15:19:22.517Z,2.23
2018-03-20T15:21:48.748Z,2.24
2018-03-20T15:24:15.160Z,2.26
2018-03-20T15:26:41.392Z,2.21
2018-03-20T15:29:07.691Z,2.20
2018-03-20T15:31:33.943Z,2.18
2018-03-20T15:34:00.230Z,2.18
2018-03-20T15:36:26.484Z,2.17
2018-03-20T15:38:52.708Z,2.19
2018-03-20T15:41:18.973Z,2.18
2018-03-20T15:43:45.200Z,2.21
2018-03-20T15:46:11.508Z,2.22
2018-03-20T15:48:37.731Z,2.26
2018-03-20T15:51:04.005Z,2.23
2018-03-20T15:53:30.236Z,2.21
2018-03-20T15:55:56.600Z,2.25
2018-03-20T15:58:22.872Z,2.25
2018-03-20T16:00:49.115Z,2.23
2018-03-20T16:03:15.379Z,2.27
2018-03-20T16:05:41.624Z,2.28
2018-03-20T16:08:07.873Z,2.19
2018-03-20T16:10:34.107Z,2.22
2018-03-20T16:13:00.351Z,2.22
2018-03-20T16:15:26.849Z,2.29
2018-03-20T16:17:53.108Z,2.19
2018-03-20T16:20:19.460Z,2.17
2018-03-20T16:22:45.716Z,2.15
2018-03-20T16:25:11.996Z,2.05
2018-03-20T16:27:38.288Z,1.99
2018-03-20T16:30:04.585Z,1.93
2018-03-20T16:32:30.861Z,2.00
2018-03-20T16:34:57.299Z,2.03
2018-03-20T16:37:23.589Z,1.99
2018-03-20T16:39:49.829Z,2.00
2018-03-20T16:42:16.108Z,2.08
2018-03-20T16:44:42.348Z,2.14
2018-03-20T16:47:08.635Z,2.21
2018-03-20T16:49:34.883Z,2.16
2018-03-20T16:52:01.201Z,2.12
2018-03-20T16:54:27.432Z,2.04
2018-03-20T16:56:53.668Z,1.94
2018-03-20T16:59:19.995Z,1.97
2018-03-20T17:01:46.182Z,1.97
2018-03-20T17:04:12.445Z,2.01
2018-03-20T17:06:38.700Z,1.97
2018-03-20T17:09:05.164Z,1.92
2018-03-20T17:11:31.416Z,1.92
2018-03-20T17:13:57.675Z,1.91
2018-03-20T17:16:23.912Z,1.85
2018-03-20T17:18:50.190Z,1.87
2018-03-20T17:21:16.428Z,1.96
2018-03-20T17:23:42.662Z,1.99
2018-03-20T17:26:08.928Z,1.95
2018-03-20T17:28:35.157Z,1.96
2018-03-20T17:31:01.492Z,1.92
2018-03-20T17:33:27.684Z,1.96
2018-03-20T17:35:53.973Z,1.96
2018-03-20T17:38:20.209Z,2.03
2018-03-20T17:40:46.467Z,2.03
2018-03-20T17:43:14.366Z,1.97
2018-03-20T17:45:40.596Z,1.90
2018-03-20T17:48:07.024Z,1.94
2018-03-20T17:50:33.615Z,1.94
2018-03-20T17:52:59.940Z,1.90
2018-03-20T17:55:26.171Z,1.82
2018-03-20T17:57:52.431Z,1.83
2018-03-20T18:00:18.740Z,1.86
2018-03-20T18:02:44.992Z,1.84
2018-03-20T18:05:11.283Z,1.92
2018-03-20T18:07:37.537Z,1.92
2018-03-20T18:10:03.823Z,1.91
2018-03-20T18:12:30.064Z,1.86
2018-03-20T18:14:56.328Z,1.86
2018-03-20T18:17:22.684Z,1.82
2018-03-20T18:19:48.948Z,1.89
2018-03-20T18:22:15.181Z,1.91
2018-03-20T18:24:41.469Z,1.93
2018-03-20T18:27:07.752Z,2.03
2018-03-20T18:29:33.992Z,2.04
2018-03-20T18:32:00.300Z,2.02
2018-03-20T18:34:26.549Z,1.98
2018-03-20T18:36:52.830Z,2.01
2018-03-20T18:39:19.084Z,1.99
2018-03-20T18:41:45.371Z,2.02
2018-03-20T18:44:11.613Z,2.06
2018-03-20T18:46:37.851Z,2.11
2018-03-20T18:49:04.149Z,2.05
2018-03-20T18:51:30.372Z,1.94
2018-03-20T18:53:56.631Z,1.88
2018-03-20T18:56:22.867Z,1.89
2018-03-20T18:58:49.121Z,1.95
2018-03-20T19:01:15.348Z,1.91
2018-03-20T19:03:41.633Z,1.92
2018-03-20T19:06:07.859Z,2.00
2018-03-20T19:08:34.104Z,2.05
2018-03-20T19:11:00.366Z,2.07
2018-03-20T19:13:26.592Z,2.12
2018-03-20T19:15:52.864Z,2.12
2018-03-20T19:18:19.108Z,2.15
2018-03-20T19:20:45.367Z,2.13
2018-03-20T19:23:11.625Z,2.18
2018-03-20T19:25:37.934Z,2.21
2018-03-20T19:28:04.185Z,2.22
2018-03-20T19:30:30.467Z,2.24
2018-03-20T19:32:56.733Z,2.20
2018-03-20T19:35:22.976Z,2.28
2018-03-20T19:37:49.260Z,2.27
2018-03-20T19:40:15.551Z,2.26
2018-03-20T19:42:41.819Z,2.30
2018-03-20T19:45:08.061Z,2.26
2018-03-20T19:47:34.415Z,2.28
2018-03-20T19:50:00.652Z,2.30
2018-03-20T19:52:26.908Z,2.30
2018-03-20T19:54:53.136Z,2.30
2018-03-20T19:57:19.426Z,2.33
2018-03-20T19:59:45.717Z,2.22
2018-03-20T20:02:11.988Z,2.12
2018-03-20T20:04:38.281Z,2.15
2018-03-20T20:07:04.515Z,2.16
2018-03-20T20:09:30.783Z,2.23
2018-03-20T20:11:57.031Z,2.30
2018-03-20T20:14:23.296Z,2.28
2018-03-20T20:16:49.564Z,2.27
2018-03-20T20:19:15.836Z,2.33
2018-03-20T20:21:42.108Z,2.33
2018-03-20T20:24:08.421Z,2.34
2018-03-20T20:26:34.681Z,2.37
2018-03-20T20:29:00.925Z,2.39
2018-03-20T20:31:27.206Z,2.37
2018-03-20T20:33:53.461Z,2.36
2018-03-20T20:36:19.736Z,2.40
2018-03-20T20:38:45.974Z,2.46
2018-03-20T20:41:12.464Z,2.47
2018-03-20T20:43:38.703Z,2.45
2018-03-20T20:46:05.338Z,2.43
2018-03-20T20:48:31.608Z,2.51
2018-03-20T20:50:57.826Z,2.48
2018-03-20T20:53:24.129Z,2.44
2018-03-20T20:55:50.582Z,2.34
2018-03-20T20:58:16.877Z,2.23
2018-03-20T21:00:43.152Z,2.15
2018-03-20T21:03:09.912Z,2.17
2018-03-20T21:05:37.187Z,2.18
2018-03-20T21:08:03.706Z,2.17
2018-03-20T21:10:30.155Z,2.20
2018-03-20T21:12:56.568Z,2.18
2018-03-20T21:15:22.856Z,2.28
2018-03-20T21:17:49.100Z,2.17
2018-03-20T21:20:15.500Z,2.19
2018-03-20T21:22:41.762Z,2.15
2018-03-20T21:25:08.037Z,2.17
2018-03-20T21:27:34.307Z,2.09
2018-03-20T21:30:00.560Z,2.04
2018-03-20T21:32:27.155Z,1.97
2018-03-20T21:34:53.382Z,1.97
2018-03-20T21:37:19.616Z,1.90
2018-03-20T21:39:46.030Z,1.80
2018-03-20T21:42:12.260Z,1.76
2018-03-20T21:44:38.779Z,1.70
2018-03-20T21:47:05.032Z,1.68
2018-03-20T21:49:31.300Z,1.80
2018-03-20T21:51:57.676Z,1.80
2018-03-20T21:54:23.939Z,1.80
2018-03-20T21:56:50.280Z,1.80
2018-03-20T21:59:16.524Z,1.81
2018-03-20T22:01:42.804Z,1.82
2018-03-20T22:04:09.334Z,1.80
2018-03-20T22:06:35.625Z,1.85
2018-03-20T22:09:01.929Z,1.80
2018-03-20T22:11:28.236Z,1.85
2018-03-20T22:13:54.455Z,1.83
2018-03-20T22:16:21.012Z,1.78
2018-03-20T22:18:47.267Z,1.75
2018-03-20T22:21:13.496Z,1.74
2018-03-20T22:23:39.858Z,1.70
2018-03-20T22:26:06.148Z,1.73
2018-03-20T22:28:32.569Z,1.73
2018-03-20T22:30:58.839Z,1.75
2018-03-20T22:33:25.097Z,1.77
2018-03-20T22:35:51.557Z,1.75
2018-03-20T22:38:17.832Z,1.67
2018-03-20T22:40:44.187Z,1.61
2018-03-20T22:43:10.476Z,1.62
2018-03-20T22:45:36.731Z,1.57
2018-03-20T22:48:03.180Z,1.54
2018-03-20T22:50:29.427Z,1.56
2018-03-20T22:52:55.661Z,1.57
2018-03-20T22:55:22.040Z,1.58
2018-03-20T22:57:48.272Z,1.59
2018-03-20T23:00:26.953Z,1.60
2018-03-20T23:02:53.206Z,1.51
2018-03-20T23:05:19.490Z,1.50
2018-03-20T23:07:45.876Z,1.53
2018-03-20T23:10:12.148Z,1.44
2018-03-20T23:12:38.520Z,1.51
2018-03-20T23:15:04.868Z,1.60
2018-03-20T23:17:31.140Z,1.69
2018-03-20T23:19:57.505Z,1.69
2018-03-20T23:22:23.771Z,1.63
2018-03-20T23:24:50.140Z,1.57
2018-03-20T23:27:16.424Z,1.64
2018-03-20T23:29:42.704Z,1.68
2018-03-20T23:32:09.285Z,1.65
2018-03-20T23:34:35.546Z,1.68
2018-03-20T23:37:01.829Z,1.65
2018-03-20T23:39:28.106Z,1.65
2018-03-20T23:41:54.380Z,1.57
2018-03-20T23:44:20.791Z,1.57
2018-03-20T23:46:47.037Z,1.49
2018-03-20T23:49:13.320Z,1.46
2018-03-20T23:51:39.685Z,1.51
2018-03-20T23:54:05.945Z,1.48
2018-03-20T23:56:32.270Z,1.51
2018-03-20T23:58:58.550Z,1.41
